createdAt,value
2019-02-28T00:00:19.828Z,1013.15
2019-02-28T00:01:19.819Z,1013.16
2019-02-28T00:02:22.494Z,1013.20
2019-02-28T00:03:20.443Z,1013.17
2019-02-28T00:04:19.783Z,1013.10
2019-02-28T00:05:19.774Z,1013.13
2019-02-28T00:06:19.759Z,1013.11
2019-02-28T00:07:19.751Z,1013.15
2019-02-28T00:08:19.766Z,1013.10
2019-02-28T00:09:19.728Z,1013.17
2019-02-28T00:10:19.713Z,1013.14
2019-02-28T00:11:19.703Z,1013.09
2019-02-28T00:12:19.696Z,1013.10
2019-02-28T00:13:21.656Z,1013.16
2019-02-28T00:14:19.691Z,1013.09
2019-02-28T00:15:19.662Z,1013.09
2019-02-28T00:16:19.645Z,1013.08
2019-02-28T00:17:19.632Z,1013.07
2019-02-28T00:18:19.623Z,1013.08
2019-02-28T00:19:20.992Z,1013.10
2019-02-28T00:20:19.597Z,1013.08
2019-02-28T00:21:19.585Z,1013.08
2019-02-28T00:22:19.583Z,1013.08
2019-02-28T00:23:22.035Z,1013.09
2019-02-28T00:24:19.578Z,1013.05
2019-02-28T00:25:19.542Z,1013.06
2019-02-28T00:26:19.529Z,1013.06
2019-02-28T00:27:21.922Z,1013.05
2019-02-28T00:28:19.512Z,1013.05
2019-02-28T00:29:19.519Z,1013.07
2019-02-28T00:30:19.484Z,1013.05
2019-02-28T00:31:19.473Z,1013.01
2019-02-28T00:32:21.429Z,1013.03
2019-02-28T00:33:20.459Z,1013.05
2019-02-28T00:34:19.459Z,1012.98
2019-02-28T00:35:19.424Z,1013.01
2019-02-28T00:36:19.838Z,1013.00
2019-02-28T00:37:19.407Z,1012.93
2019-02-28T00:38:19.392Z,1012.95
2019-02-28T00:39:19.412Z,1012.88
2019-02-28T00:40:19.372Z,1012.93
2019-02-28T00:41:19.365Z,1012.92
2019-02-28T00:42:19.352Z,1012.91
2019-02-28T00:43:22.142Z,1012.90
2019-02-28T00:44:19.350Z,1012.89
2019-02-28T00:45:19.317Z,1012.83
2019-02-28T00:46:19.305Z,1012.83
2019-02-28T00:47:19.288Z,1012.79
2019-02-28T00:48:21.685Z,1012.78
2019-02-28T00:49:19.299Z,1012.80
2019-02-28T00:50:19.253Z,1012.75
2019-02-28T00:51:19.245Z,1012.75
2019-02-28T00:52:19.241Z,1012.73
2019-02-28T00:53:19.219Z,1012.75
2019-02-28T00:54:19.253Z,1012.71
2019-02-28T00:55:19.205Z,1012.69
2019-02-28T00:56:19.189Z,1012.68
2019-02-28T00:57:19.173Z,1012.70
2019-02-28T00:58:19.168Z,1012.69
2019-02-28T00:59:19.180Z,1012.68
2019-02-28T01:00:19.147Z,1012.68
2019-02-28T01:01:19.129Z,1012.70
2019-02-28T01:02:19.118Z,1012.64
2019-02-28T01:03:19.118Z,1012.71
2019-02-28T01:04:19.123Z,1012.65
2019-02-28T01:05:19.087Z,1012.68
2019-02-28T01:06:19.082Z,1012.65
2019-02-28T01:07:19.067Z,1012.66
2019-02-28T01:08:21.883Z,1012.66
2019-02-28T01:09:19.066Z,1012.64
2019-02-28T01:10:19.027Z,1012.66
2019-02-28T01:11:19.016Z,1012.68
2019-02-28T01:12:20.018Z,1012.67
2019-02-28T01:13:18.994Z,1012.64
2019-02-28T01:14:18.981Z,1012.64
2019-02-28T01:15:18.994Z,1012.69
2019-02-28T01:16:19.405Z,1012.62
2019-02-28T01:17:18.961Z,1012.63
2019-02-28T01:18:18.936Z,1012.52
2019-02-28T01:19:18.933Z,1012.55
2019-02-28T01:20:18.939Z,1012.54
2019-02-28T01:21:23.636Z,1012.58
2019-02-28T01:22:19.888Z,1012.56
2019-02-28T01:23:18.886Z,1012.51
2019-02-28T01:24:18.869Z,1012.50
2019-02-28T01:25:18.880Z,1012.48
2019-02-28T01:26:18.852Z,1012.52
2019-02-28T01:27:20.979Z,1012.42
2019-02-28T01:28:18.823Z,1012.46
2019-02-28T01:29:18.823Z,1012.45
2019-02-28T01:30:18.829Z,1012.33
2019-02-28T01:31:18.791Z,1012.37
2019-02-28T01:32:18.786Z,1012.44
2019-02-28T01:33:24.602Z,1012.40
2019-02-28T01:34:19.753Z,1012.31
2019-02-28T01:35:18.783Z,1012.32
2019-02-28T01:36:18.734Z,1012.30
2019-02-28T01:37:20.937Z,1012.33
2019-02-28T01:38:18.711Z,1012.34
2019-02-28T01:39:18.724Z,1012.34
2019-02-28T01:40:18.735Z,1012.34
2019-02-28T01:41:18.680Z,1012.28
2019-02-28T01:42:19.982Z,1012.27
2019-02-28T01:43:18.655Z,1012.29
2019-02-28T01:44:18.645Z,1012.30
2019-02-28T01:45:18.658Z,1012.17
2019-02-28T01:46:18.628Z,1012.23
2019-02-28T01:47:19.962Z,1012.29
2019-02-28T01:48:18.603Z,1012.29
2019-02-28T01:49:18.591Z,1012.34
2019-02-28T01:50:18.604Z,1012.31
2019-02-28T01:51:18.567Z,1012.28
2019-02-28T01:52:18.562Z,1012.25
2019-02-28T01:53:19.538Z,1012.27
2019-02-28T01:54:18.538Z,1012.29
2019-02-28T01:55:18.550Z,1012.25
2019-02-28T01:56:18.511Z,1012.18
2019-02-28T01:57:18.508Z,1012.19
2019-02-28T01:58:18.496Z,1012.13
2019-02-28T01:59:21.618Z,1012.19
2019-02-28T02:00:18.497Z,1012.11
2019-02-28T02:01:18.457Z,1012.13
2019-02-28T02:02:18.443Z,1012.14
2019-02-28T02:03:18.432Z,1012.15
2019-02-28T02:04:18.422Z,1012.14
2019-02-28T02:05:18.442Z,1012.18
2019-02-28T02:06:18.402Z,1012.20
2019-02-28T02:07:18.390Z,1012.20
2019-02-28T02:08:18.382Z,1012.21
2019-02-28T02:09:18.368Z,1012.17
2019-02-28T02:10:21.329Z,1012.12
2019-02-28T02:11:18.346Z,1012.11
2019-02-28T02:12:18.334Z,1012.13
2019-02-28T02:13:18.324Z,1012.06
2019-02-28T02:14:18.313Z,1012.06
2019-02-28T02:15:18.305Z,1012.04
2019-02-28T02:16:18.315Z,1012.04
2019-02-28T02:17:18.281Z,1011.98
2019-02-28T02:18:18.270Z,1012.03
2019-02-28T02:19:18.804Z,1011.98
2019-02-28T02:20:18.250Z,1011.97
2019-02-28T02:21:18.262Z,1011.98
2019-02-28T02:22:18.231Z,1011.99
2019-02-28T02:23:18.918Z,1011.94
2019-02-28T02:24:18.201Z,1011.95
2019-02-28T02:25:18.192Z,1011.91
2019-02-28T02:26:18.206Z,1011.93
2019-02-28T02:27:19.532Z,1011.88
2019-02-28T02:28:18.158Z,1011.86
2019-02-28T02:29:18.149Z,1011.83
2019-02-28T02:30:18.137Z,1011.80
2019-02-28T02:31:18.154Z,1011.80
2019-02-28T02:32:18.133Z,1011.80
2019-02-28T02:33:18.107Z,1011.78
2019-02-28T02:34:18.094Z,1011.73
2019-02-28T02:35:18.083Z,1011.71
2019-02-28T02:36:18.097Z,1011.69
2019-02-28T02:37:18.060Z,1011.72
2019-02-28T02:38:18.049Z,1011.69
2019-02-28T02:39:18.050Z,1011.68
2019-02-28T02:40:18.038Z,1011.62
2019-02-28T02:41:18.049Z,1011.62
2019-02-28T02:42:18.005Z,1011.60
2019-02-28T02:43:21.864Z,1011.56
2019-02-28T02:44:19.019Z,1011.58
2019-02-28T02:45:17.971Z,1011.56
2019-02-28T02:46:20.213Z,1011.52
2019-02-28T02:47:17.948Z,1011.52
2019-02-28T02:48:17.942Z,1011.54
2019-02-28T02:49:19.913Z,1011.52
2019-02-28T02:50:17.920Z,1011.50
2019-02-28T02:51:17.930Z,1011.49
2019-02-28T02:52:17.898Z,1011.47
2019-02-28T02:53:17.883Z,1011.49
2019-02-28T02:54:19.698Z,1011.49
2019-02-28T02:55:17.861Z,1011.48
2019-02-28T02:56:17.885Z,1011.46
2019-02-28T02:57:17.840Z,1011.48
2019-02-28T02:58:17.831Z,1011.41
2019-02-28T02:59:17.817Z,1011.37
2019-02-28T03:00:17.806Z,1011.44
2019-02-28T03:01:17.823Z,1011.45
2019-02-28T03:02:17.781Z,1011.44
2019-02-28T03:03:17.778Z,1011.44
2019-02-28T03:04:23.132Z,1011.41
2019-02-28T03:05:18.758Z,1011.41
2019-02-28T03:06:17.742Z,1011.41
2019-02-28T03:07:23.209Z,1011.40
2019-02-28T03:08:18.717Z,1011.41
2019-02-28T03:09:17.701Z,1011.36
2019-02-28T03:10:19.395Z,1011.32
2019-02-28T03:11:17.684Z,1011.33
2019-02-28T03:12:17.700Z,1011.31
2019-02-28T03:13:17.658Z,1011.33
2019-02-28T03:14:17.712Z,1011.31
2019-02-28T03:15:24.843Z,1011.35
2019-02-28T03:16:18.624Z,1011.33
2019-02-28T03:17:17.643Z,1011.32
2019-02-28T03:18:20.450Z,1011.32
2019-02-28T03:19:17.595Z,1011.33
2019-02-28T03:20:17.603Z,1011.31
2019-02-28T03:21:17.583Z,1011.29
2019-02-28T03:22:17.598Z,1011.32
2019-02-28T03:23:17.546Z,1011.29
2019-02-28T03:24:17.545Z,1011.30
2019-02-28T03:25:17.525Z,1011.32
2019-02-28T03:26:17.511Z,1011.33
2019-02-28T03:27:19.196Z,1011.36
2019-02-28T03:28:17.490Z,1011.37
2019-02-28T03:29:17.482Z,1011.30
2019-02-28T03:30:27.908Z,1011.31
2019-02-28T03:31:18.460Z,1011.34
2019-02-28T03:32:17.472Z,1011.32
2019-02-28T03:33:27.496Z,1011.35
2019-02-28T03:34:18.493Z,1011.32
2019-02-28T03:35:17.428Z,1011.34
2019-02-28T03:36:17.447Z,1011.33
2019-02-28T03:37:17.426Z,1011.29
2019-02-28T03:38:17.376Z,1011.33
2019-02-28T03:39:24.218Z,1011.33
2019-02-28T03:40:18.383Z,1011.29
2019-02-28T03:41:18.186Z,1011.30
2019-02-28T03:42:17.354Z,1011.30
2019-02-28T03:43:17.319Z,1011.26
2019-02-28T03:44:21.265Z,1011.30
2019-02-28T03:45:17.301Z,1011.27
2019-02-28T03:46:17.336Z,1011.32
2019-02-28T03:47:22.740Z,1011.33
2019-02-28T03:48:18.267Z,1011.32
2019-02-28T03:49:17.253Z,1011.29
2019-02-28T03:50:17.241Z,1011.33
2019-02-28T03:51:17.230Z,1011.37
2019-02-28T03:52:17.247Z,1011.31
2019-02-28T03:53:19.905Z,1011.28
2019-02-28T03:54:17.199Z,1011.30
2019-02-28T03:55:17.183Z,1011.34
2019-02-28T03:56:17.178Z,1011.28
2019-02-28T03:57:17.199Z,1011.28
2019-02-28T03:58:17.156Z,1011.32
2019-02-28T03:59:18.987Z,1011.31
2019-02-28T04:00:17.129Z,1011.35
2019-02-28T04:01:17.123Z,1011.35
2019-02-28T04:02:20.775Z,1011.40
2019-02-28T04:03:18.138Z,1011.40
2019-02-28T04:04:17.088Z,1011.41
2019-02-28T04:05:17.076Z,1011.38
2019-02-28T04:06:17.061Z,1011.39
2019-02-28T04:07:17.153Z,1011.37
2019-02-28T04:08:17.063Z,1011.35
2019-02-28T04:09:17.026Z,1011.37
2019-02-28T04:10:22.051Z,1011.35
2019-02-28T04:11:18.005Z,1011.36
2019-02-28T04:12:16.996Z,1011.30
2019-02-28T04:13:19.211Z,1011.32
2019-02-28T04:14:16.971Z,1011.35
2019-02-28T04:15:16.980Z,1011.33
2019-02-28T04:16:16.952Z,1011.29
2019-02-28T04:17:16.939Z,1011.33
2019-02-28T04:18:16.953Z,1011.30
2019-02-28T04:19:21.287Z,1011.35
2019-02-28T04:20:17.908Z,1011.29
2019-02-28T04:21:16.899Z,1011.28
2019-02-28T04:22:19.616Z,1011.30
2019-02-28T04:23:17.895Z,1011.27
2019-02-28T04:24:16.862Z,1011.22
2019-02-28T04:25:22.813Z,1011.23
2019-02-28T04:26:17.842Z,1011.23
2019-02-28T04:27:16.856Z,1011.22
2019-02-28T04:28:18.656Z,1011.23
2019-02-28T04:29:16.804Z,1011.21
2019-02-28T04:30:16.796Z,1011.16
2019-02-28T04:31:20.058Z,1011.17
2019-02-28T04:32:16.772Z,1011.16
2019-02-28T04:33:16.785Z,1011.19
2019-02-28T04:34:16.749Z,1011.15
2019-02-28T04:35:16.744Z,1011.15
2019-02-28T04:36:16.723Z,1011.17
2019-02-28T04:37:16.720Z,1011.15
2019-02-28T04:38:20.467Z,1011.15
2019-02-28T04:39:16.699Z,1011.18
2019-02-28T04:40:16.684Z,1011.18
2019-02-28T04:41:16.668Z,1011.16
2019-02-28T04:42:16.659Z,1011.16
2019-02-28T04:43:16.681Z,1011.16
2019-02-28T04:44:18.255Z,1011.13
2019-02-28T04:45:16.626Z,1011.18
2019-02-28T04:46:16.610Z,1011.12
2019-02-28T04:47:16.601Z,1011.15
2019-02-28T04:48:16.619Z,1011.15
2019-02-28T04:49:21.767Z,1011.16
2019-02-28T04:50:17.563Z,1011.16
2019-02-28T04:51:16.557Z,1011.16
2019-02-28T04:52:16.543Z,1011.12
2019-02-28T04:53:18.864Z,1011.16
2019-02-28T04:54:16.521Z,1011.14
2019-02-28T04:55:16.509Z,1011.09
2019-02-28T04:56:16.498Z,1011.12
2019-02-28T04:57:17.409Z,1011.10
2019-02-28T04:58:16.507Z,1011.11
2019-02-28T04:59:16.462Z,1011.09
2019-02-28T05:00:16.452Z,1011.05
2019-02-28T05:01:16.448Z,1011.03
2019-02-28T05:02:19.664Z,1011.04
2019-02-28T05:03:16.420Z,1011.08
2019-02-28T05:04:16.441Z,1011.08
2019-02-28T05:05:16.398Z,1011.06
2019-02-28T05:06:18.264Z,1011.01
2019-02-28T05:07:16.383Z,1011.06
2019-02-28T05:08:16.376Z,1011.03
2019-02-28T05:09:16.380Z,1011.04
2019-02-28T05:10:19.291Z,1010.99
2019-02-28T05:11:17.348Z,1011.06
2019-02-28T05:12:16.322Z,1011.07
2019-02-28T05:13:16.307Z,1011.06
2019-02-28T05:14:16.331Z,1011.10
2019-02-28T05:15:16.311Z,1011.09
2019-02-28T05:16:16.272Z,1011.16
2019-02-28T05:17:16.264Z,1011.13
2019-02-28T05:18:16.263Z,1011.14
2019-02-28T05:19:16.262Z,1011.14
2019-02-28T05:20:16.227Z,1011.10
2019-02-28T05:21:16.493Z,1011.13
2019-02-28T05:22:16.208Z,1011.15
2019-02-28T05:23:16.199Z,1011.16
2019-02-28T05:24:16.211Z,1011.18
2019-02-28T05:25:18.681Z,1011.13
2019-02-28T05:26:16.159Z,1011.09
2019-02-28T05:27:16.146Z,1011.05
2019-02-28T05:28:16.138Z,1011.04
2019-02-28T05:29:16.152Z,1011.00
2019-02-28T05:30:19.488Z,1011.07
2019-02-28T05:31:16.106Z,1011.08
2019-02-28T05:32:16.094Z,1011.02
2019-02-28T05:33:16.079Z,1011.05
2019-02-28T05:34:16.823Z,1011.02
2019-02-28T05:35:16.101Z,1011.06
2019-02-28T05:36:16.059Z,1011.13
2019-02-28T05:37:16.034Z,1011.13
2019-02-28T05:38:20.772Z,1011.11
2019-02-28T05:39:17.035Z,1011.13
2019-02-28T05:40:16.007Z,1011.16
2019-02-28T05:41:16.068Z,1011.11
2019-02-28T05:42:15.977Z,1011.11
2019-02-28T05:43:15.969Z,1011.10
2019-02-28T05:44:15.985Z,1011.11
2019-02-28T05:45:15.947Z,1011.06
2019-02-28T05:46:15.942Z,1011.07
2019-02-28T05:47:15.927Z,1011.07
2019-02-28T05:48:15.927Z,1011.08
2019-02-28T05:49:15.939Z,1011.04
2019-02-28T05:50:17.305Z,1011.00
2019-02-28T05:51:15.884Z,1011.06
2019-02-28T05:52:15.879Z,1011.09
2019-02-28T05:53:15.858Z,1011.05
2019-02-28T05:54:17.101Z,1010.98
2019-02-28T05:55:15.873Z,1011.05
2019-02-28T05:56:15.826Z,1011.04
2019-02-28T05:57:15.812Z,1011.07
2019-02-28T05:58:18.411Z,1011.07
2019-02-28T05:59:15.812Z,1011.07
2019-02-28T06:00:15.779Z,1011.11
2019-02-28T06:01:15.763Z,1011.13
2019-02-28T06:02:18.947Z,1011.14
2019-02-28T06:03:16.740Z,1011.10
2019-02-28T06:04:15.731Z,1011.08
2019-02-28T06:05:15.746Z,1011.09
2019-02-28T06:06:17.237Z,1011.06
2019-02-28T06:07:15.709Z,1011.09
2019-02-28T06:08:15.687Z,1011.06
2019-02-28T06:09:15.678Z,1011.01
2019-02-28T06:10:15.687Z,1011.09
2019-02-28T06:11:15.664Z,1011.07
2019-02-28T06:12:15.644Z,1011.03
2019-02-28T06:13:18.306Z,1011.02
2019-02-28T06:14:15.618Z,1010.97
2019-02-28T06:15:15.629Z,1010.99
2019-02-28T06:16:15.599Z,1010.97
2019-02-28T06:17:17.394Z,1010.89
2019-02-28T06:18:15.584Z,1010.95
2019-02-28T06:19:15.563Z,1010.97
2019-02-28T06:20:16.951Z,1010.88
2019-02-28T06:21:15.539Z,1010.88
2019-02-28T06:22:15.529Z,1010.87
2019-02-28T06:23:15.517Z,1010.89
2019-02-28T06:24:15.537Z,1010.83
2019-02-28T06:25:21.990Z,1010.85
2019-02-28T06:26:16.502Z,1010.83
2019-02-28T06:27:15.475Z,1010.90
2019-02-28T06:28:15.481Z,1010.88
2019-02-28T06:29:15.449Z,1010.92
2019-02-28T06:30:15.468Z,1010.96
2019-02-28T06:31:15.439Z,1010.89
2019-02-28T06:32:15.419Z,1010.89
2019-02-28T06:33:15.417Z,1010.91
2019-02-28T06:34:15.395Z,1010.94
2019-02-28T06:35:17.824Z,1010.93
2019-02-28T06:36:15.370Z,1010.89
2019-02-28T06:37:15.367Z,1010.89
2019-02-28T06:38:16.291Z,1010.88
2019-02-28T06:39:17.448Z,1010.91
2019-02-28T06:40:15.352Z,1010.88
2019-02-28T06:41:15.316Z,1010.90
2019-02-28T06:42:15.301Z,1010.91
2019-02-28T06:43:18.150Z,1010.92
2019-02-28T06:44:15.281Z,1010.91
2019-02-28T06:45:15.295Z,1010.89
2019-02-28T06:46:15.268Z,1010.88
2019-02-28T06:47:15.247Z,1010.89
2019-02-28T06:48:15.242Z,1010.95
2019-02-28T06:49:15.223Z,1010.92
2019-02-28T06:50:15.246Z,1010.89
2019-02-28T06:51:16.762Z,1010.93
2019-02-28T06:52:15.192Z,1010.92
2019-02-28T06:53:15.180Z,1010.93
2019-02-28T06:54:15.176Z,1010.87
2019-02-28T06:55:15.159Z,1010.88
2019-02-28T06:56:16.405Z,1010.96
2019-02-28T06:57:15.172Z,1010.94
2019-02-28T06:58:15.120Z,1010.94
2019-02-28T06:59:15.111Z,1011.00
2019-02-28T07:00:15.119Z,1010.97
2019-02-28T07:01:15.114Z,1010.99
2019-02-28T07:02:15.077Z,1010.96
2019-02-28T07:03:15.074Z,1011.02
2019-02-28T07:04:15.307Z,1010.99
2019-02-28T07:05:15.047Z,1010.94
2019-02-28T07:06:15.061Z,1010.97
2019-02-28T07:07:15.021Z,1010.91
2019-02-28T07:08:15.008Z,1010.94
2019-02-28T07:09:15.011Z,1010.94
2019-02-28T07:10:14.988Z,1010.93
2019-02-28T07:11:15.002Z,1010.88
2019-02-28T07:12:14.966Z,1010.89
2019-02-28T07:13:14.952Z,1010.95
2019-02-28T07:14:14.950Z,1010.97
2019-02-28T07:15:14.942Z,1010.90
2019-02-28T07:16:14.982Z,1010.95
2019-02-28T07:17:14.907Z,1010.94
2019-02-28T07:18:14.897Z,1010.89
2019-02-28T07:19:14.884Z,1010.87
2019-02-28T07:20:14.879Z,1010.91
2019-02-28T07:21:14.890Z,1010.90
2019-02-28T07:22:19.388Z,1010.88
2019-02-28T07:23:14.844Z,1010.91
2019-02-28T07:24:14.831Z,1010.90
2019-02-28T07:25:14.820Z,1010.84
2019-02-28T07:26:14.833Z,1010.82
2019-02-28T07:27:14.794Z,1010.90
2019-02-28T07:28:14.784Z,1010.85
2019-02-28T07:29:14.771Z,1010.85
2019-02-28T07:30:18.563Z,1010.89
2019-02-28T07:31:14.785Z,1010.85
2019-02-28T07:32:14.743Z,1010.85
2019-02-28T07:33:14.728Z,1010.87
2019-02-28T07:34:19.555Z,1010.87
2019-02-28T07:35:15.705Z,1010.84
2019-02-28T07:36:14.741Z,1010.82
2019-02-28T07:37:18.593Z,1010.82
2019-02-28T07:38:14.700Z,1010.76
2019-02-28T07:39:14.664Z,1010.78
2019-02-28T07:40:16.174Z,1010.79
2019-02-28T07:41:14.661Z,1010.83
2019-02-28T07:42:14.630Z,1010.89
2019-02-28T07:43:14.622Z,1010.85
2019-02-28T07:44:21.272Z,1010.89
2019-02-28T07:45:15.643Z,1010.87
2019-02-28T07:46:14.608Z,1010.88
2019-02-28T07:47:17.225Z,1010.87
2019-02-28T07:48:14.556Z,1010.87
2019-02-28T07:49:14.546Z,1010.86
2019-02-28T07:50:14.535Z,1010.93
2019-02-28T07:51:14.558Z,1010.88
2019-02-28T07:52:14.512Z,1010.88
2019-02-28T07:53:14.516Z,1010.86
2019-02-28T07:54:15.827Z,1010.91
2019-02-28T07:55:14.482Z,1010.94
2019-02-28T07:56:14.472Z,1010.92
2019-02-28T07:57:17.316Z,1010.92
2019-02-28T07:58:14.448Z,1010.92
2019-02-28T07:59:14.442Z,1010.96
2019-02-28T08:00:18.112Z,1010.93
2019-02-28T08:01:14.418Z,1010.91
2019-02-28T08:02:14.429Z,1010.93
2019-02-28T08:03:14.395Z,1010.90
2019-02-28T08:04:18.083Z,1010.89
2019-02-28T08:05:14.371Z,1010.86
2019-02-28T08:06:14.368Z,1010.85
2019-02-28T08:07:14.719Z,1010.90
2019-02-28T08:08:14.336Z,1010.90
2019-02-28T08:09:14.326Z,1010.88
2019-02-28T08:10:16.043Z,1010.85
2019-02-28T08:11:14.303Z,1010.77
2019-02-28T08:12:14.323Z,1010.76
2019-02-28T08:13:14.280Z,1010.75
2019-02-28T08:14:14.271Z,1010.71
2019-02-28T08:15:14.262Z,1010.68
2019-02-28T08:16:14.250Z,1010.65
2019-02-28T08:17:14.274Z,1010.62
2019-02-28T08:18:15.810Z,1010.57
2019-02-28T08:19:14.217Z,1010.60
2019-02-28T08:20:14.216Z,1010.53
2019-02-28T08:21:14.190Z,1010.62
2019-02-28T08:22:14.206Z,1010.62
2019-02-28T08:23:14.170Z,1010.70
2019-02-28T08:24:14.159Z,1010.75
2019-02-28T08:25:14.155Z,1010.67
2019-02-28T08:26:15.479Z,1010.72
2019-02-28T08:27:14.161Z,1010.74
2019-02-28T08:28:14.120Z,1010.74
2019-02-28T08:29:14.116Z,1010.73
2019-02-28T08:30:16.273Z,1010.70
2019-02-28T08:31:15.076Z,1010.66
2019-02-28T08:32:14.109Z,1010.64
2019-02-28T08:33:16.397Z,1010.57
2019-02-28T08:34:14.042Z,1010.57
2019-02-28T08:35:14.031Z,1010.59
2019-02-28T08:36:14.025Z,1010.59
2019-02-28T08:37:14.035Z,1010.59
2019-02-28T08:38:14.004Z,1010.57
2019-02-28T08:39:16.205Z,1010.57
2019-02-28T08:40:15.611Z,1010.53
2019-02-28T08:41:13.974Z,1010.59
2019-02-28T08:42:13.975Z,1010.60
2019-02-28T08:43:14.142Z,1010.66
2019-02-28T08:44:13.939Z,1010.72
2019-02-28T08:45:13.919Z,1010.67
2019-02-28T08:46:13.964Z,1010.71
2019-02-28T08:47:13.925Z,1010.63
2019-02-28T08:48:13.885Z,1010.64
2019-02-28T08:49:13.872Z,1010.63
2019-02-28T08:50:18.934Z,1010.57
2019-02-28T08:51:14.848Z,1010.57
2019-02-28T08:52:13.881Z,1010.58
2019-02-28T08:53:15.485Z,1010.60
2019-02-28T08:54:13.816Z,1010.62
2019-02-28T08:55:13.806Z,1010.61
2019-02-28T08:56:14.044Z,1010.56
2019-02-28T08:57:13.782Z,1010.51
2019-02-28T08:58:13.799Z,1010.50
2019-02-28T08:59:18.227Z,1010.51
2019-02-28T09:00:14.746Z,1010.53
2019-02-28T09:01:13.735Z,1010.51
2019-02-28T09:02:17.804Z,1010.58
2019-02-28T09:03:13.738Z,1010.58
2019-02-28T09:04:13.702Z,1010.55
2019-02-28T09:05:13.694Z,1010.57
2019-02-28T09:06:13.683Z,1010.55
2019-02-28T09:07:15.150Z,1010.55
2019-02-28T09:08:13.684Z,1010.55
2019-02-28T09:09:14.701Z,1010.64
2019-02-28T09:10:13.634Z,1010.59
2019-02-28T09:11:13.637Z,1010.60
2019-02-28T09:12:13.615Z,1010.65
2019-02-28T09:13:13.626Z,1010.65
2019-02-28T09:14:14.694Z,1010.64
2019-02-28T09:15:13.587Z,1010.71
2019-02-28T09:16:13.571Z,1010.70
2019-02-28T09:17:15.502Z,1010.68
2019-02-28T09:18:13.570Z,1010.68
2019-02-28T09:19:13.535Z,1010.66
2019-02-28T09:20:13.522Z,1010.68
2019-02-28T09:21:15.471Z,1010.63
2019-02-28T09:22:13.502Z,1010.68
2019-02-28T09:23:13.514Z,1010.66
2019-02-28T09:24:13.706Z,1010.64
2019-02-28T09:25:13.473Z,1010.63
2019-02-28T09:26:13.462Z,1010.54
2019-02-28T09:27:13.451Z,1010.52
2019-02-28T09:28:13.847Z,1010.50
2019-02-28T09:29:13.421Z,1010.44
2019-02-28T09:30:13.418Z,1010.44
2019-02-28T09:31:13.404Z,1010.45
2019-02-28T09:32:14.348Z,1010.44
2019-02-28T09:33:13.399Z,1010.46
2019-02-28T09:34:13.363Z,1010.36
2019-02-28T09:35:14.546Z,1010.31
2019-02-28T09:36:13.342Z,1010.32
2019-02-28T09:37:13.335Z,1010.32
2019-02-28T09:38:13.831Z,1010.23
2019-02-28T09:39:16.392Z,1010.23
2019-02-28T09:40:14.293Z,1010.22
2019-02-28T09:41:13.287Z,1010.20
2019-02-28T09:42:15.721Z,1010.16
2019-02-28T09:43:13.263Z,1010.16
2019-02-28T09:44:13.278Z,1010.15
2019-02-28T09:45:13.249Z,1010.11
2019-02-28T09:46:15.554Z,1010.12
2019-02-28T09:47:13.219Z,1010.15
2019-02-28T09:48:13.207Z,1010.16
2019-02-28T09:49:13.227Z,1010.18
2019-02-28T09:50:13.188Z,1010.19
2019-02-28T09:51:13.173Z,1010.20
2019-02-28T09:52:13.160Z,1010.24
2019-02-28T09:53:16.582Z,1010.28
2019-02-28T09:54:13.160Z,1010.28
2019-02-28T09:55:13.131Z,1010.28
2019-02-28T09:56:13.115Z,1010.26
2019-02-28T09:57:15.398Z,1010.24
2019-02-28T09:58:14.092Z,1010.24
2019-02-28T09:59:13.107Z,1010.24
2019-02-28T10:00:13.081Z,1010.32
2019-02-28T10:01:13.062Z,1010.26
2019-02-28T10:02:13.053Z,1010.22
2019-02-28T10:03:15.493Z,1010.21
2019-02-28T10:04:14.055Z,1010.16
2019-02-28T10:05:13.025Z,1010.13
2019-02-28T10:06:13.474Z,1010.11
2019-02-28T10:07:12.997Z,1010.05
2019-02-28T10:08:12.983Z,1010.08
2019-02-28T10:09:12.994Z,1010.12
2019-02-28T10:10:13.865Z,1010.10
2019-02-28T10:11:12.944Z,1010.11
2019-02-28T10:12:12.933Z,1010.07
2019-02-28T10:13:14.545Z,1010.11
2019-02-28T10:14:12.940Z,1010.11
2019-02-28T10:15:12.904Z,1010.11
2019-02-28T10:16:13.550Z,1010.13
2019-02-28T10:17:12.878Z,1010.12
2019-02-28T10:18:12.877Z,1010.12
2019-02-28T10:19:13.377Z,1010.16
2019-02-28T10:20:12.844Z,1010.19
2019-02-28T10:21:12.835Z,1010.13
2019-02-28T10:22:13.047Z,1010.17
2019-02-28T10:23:12.809Z,1010.14
2019-02-28T10:24:12.823Z,1010.13
2019-02-28T10:25:12.797Z,1010.08
2019-02-28T10:26:14.363Z,1010.15
2019-02-28T10:27:12.771Z,1010.11
2019-02-28T10:28:12.752Z,1010.14
2019-02-28T10:29:12.767Z,1010.13
2019-02-28T10:30:15.655Z,1010.08
2019-02-28T10:31:12.718Z,1010.12
2019-02-28T10:32:12.707Z,1010.04
2019-02-28T10:33:14.329Z,1010.02
2019-02-28T10:34:12.688Z,1009.96
2019-02-28T10:35:12.700Z,1009.99
2019-02-28T10:36:13.763Z,1009.92
2019-02-28T10:37:12.656Z,1009.91
2019-02-28T10:38:12.640Z,1009.95
2019-02-28T10:39:12.648Z,1009.98
2019-02-28T10:40:14.160Z,1010.00
2019-02-28T10:41:12.604Z,1009.98
2019-02-28T10:42:12.622Z,1010.01
2019-02-28T10:43:15.621Z,1009.99
2019-02-28T10:44:12.576Z,1010.00
2019-02-28T10:45:12.585Z,1010.00
2019-02-28T10:46:13.342Z,1009.99
2019-02-28T10:47:12.539Z,1010.03
2019-02-28T10:48:12.524Z,1010.00
2019-02-28T10:49:12.518Z,1010.03
2019-02-28T10:50:12.548Z,1010.04
2019-02-28T10:51:14.173Z,1010.06
2019-02-28T10:52:12.484Z,1010.10
2019-02-28T10:53:12.472Z,1010.05
2019-02-28T10:54:14.526Z,1010.11
2019-02-28T10:55:12.475Z,1010.08
2019-02-28T10:56:12.438Z,1010.10
2019-02-28T10:57:12.427Z,1010.10
2019-02-28T10:58:15.423Z,1010.11
2019-02-28T10:59:12.402Z,1010.12
2019-02-28T11:00:12.419Z,1010.11
2019-02-28T11:01:12.390Z,1010.08
2019-02-28T11:02:13.970Z,1010.10
2019-02-28T11:03:13.355Z,1010.13
2019-02-28T11:04:12.346Z,1010.14
2019-02-28T11:05:12.365Z,1010.10
2019-02-28T11:06:12.324Z,1010.09
2019-02-28T11:07:12.310Z,1010.09
2019-02-28T11:08:12.828Z,1010.12
2019-02-28T11:09:12.292Z,1010.13
2019-02-28T11:10:12.305Z,1010.12
2019-02-28T11:11:12.264Z,1010.13
2019-02-28T11:12:12.260Z,1010.14
2019-02-28T11:13:12.243Z,1010.16
2019-02-28T11:14:12.235Z,1010.13
2019-02-28T11:15:13.939Z,1010.13
2019-02-28T11:16:12.208Z,1010.11
2019-02-28T11:17:13.831Z,1010.15
2019-02-28T11:18:12.190Z,1010.18
2019-02-28T11:19:13.837Z,1010.14
2019-02-28T11:20:21.816Z,1010.10
2019-02-28T11:21:13.150Z,1010.12
2019-02-28T11:22:12.150Z,1010.09
2019-02-28T11:23:14.947Z,1010.12
2019-02-28T11:24:12.123Z,1010.12
2019-02-28T11:25:12.133Z,1010.03
2019-02-28T11:26:12.106Z,1010.05
2019-02-28T11:27:12.083Z,1010.01
2019-02-28T11:28:12.074Z,1009.98
2019-02-28T11:29:12.063Z,1009.97
2019-02-28T11:30:12.078Z,1009.90
2019-02-28T11:31:12.044Z,1009.89
2019-02-28T11:32:12.033Z,1009.84
2019-02-28T11:33:12.017Z,1009.87
2019-02-28T11:34:15.040Z,1009.85
2019-02-28T11:35:12.011Z,1009.87
2019-02-28T11:36:12.006Z,1009.84
2019-02-28T11:37:12.787Z,1009.81
2019-02-28T11:38:11.965Z,1009.79
2019-02-28T11:39:11.949Z,1009.77
2019-02-28T11:40:11.940Z,1009.79
2019-02-28T11:41:11.951Z,1009.72
2019-02-28T11:42:11.913Z,1009.77
2019-02-28T11:43:11.909Z,1009.79
2019-02-28T11:44:12.871Z,1009.78
2019-02-28T11:45:11.886Z,1009.73
2019-02-28T11:46:11.894Z,1009.75
2019-02-28T11:47:12.049Z,1009.79
2019-02-28T11:48:12.850Z,1009.73
2019-02-28T11:49:13.643Z,1009.81
2019-02-28T11:50:11.823Z,1009.80
2019-02-28T11:51:14.572Z,1009.80
2019-02-28T11:52:12.801Z,1009.83
2019-02-28T11:53:11.793Z,1009.84
2019-02-28T11:54:12.402Z,1009.83
2019-02-28T11:55:11.767Z,1009.72
2019-02-28T11:56:11.782Z,1009.69
2019-02-28T11:57:11.748Z,1009.66
2019-02-28T11:58:16.547Z,1009.60
2019-02-28T11:59:12.731Z,1009.64
2019-02-28T12:00:13.441Z,1009.61
2019-02-28T12:01:11.724Z,1009.58
2019-02-28T12:02:11.693Z,1009.59
2019-02-28T12:03:11.678Z,1009.68
2019-02-28T12:04:11.664Z,1009.60
2019-02-28T12:05:12.343Z,1009.64